Buckeye Village, Ohio
Current Conditions -  °F | °C
As of 7:52 AM on Wednesday 26 Nov 2014 (Local Time) from KMFD Reporting Station
Overcast Overcast  
Wind Chill: 23°   Ceiling: 1600
Heat Index: 29°   Visibility: 10mi
Dew Point: 23°   Wind: 6mph
Humidity: 78%   Direction: 30°NNE
Pressure: 30.11"   Gusts: NA
Location:  41.0654°N, 82.876°W
Report Text: KMFD 261252Z 03005KT 10SM OVC016 M02/M05 A3011 RMK AO2 SLP211 T10171050
Loading
Personal Weather Stations






























Interactive Weather Map New forecast layout! Learn more

10-Day Weather Forecast

Advertisements
Track Severe Weather on mobile